Time;durP1;ratioP1;P1;durP2;ratioP2;P2;SDS_P1;SDS_P2;PMS_P1;PMS_P2;Temp;Humidity;BMP_temperature;BMP_pressure;BME280_temperature;BME280_humidity;BME280_pressure;Samples;Min_cycle;Max_cycle;Signal;HPM_P1;HPM_P2
2020/12/03 00:00:55;;;;;;;;;;;;;;;-1.35;100.00;101916.50;1795622;77;21072;-49
2020/12/03 00:03:33;;;;;;;0.30;0.30;;;;;;;-1.34;100.00;101919.50;1810730;77;20529;-50
2020/12/03 00:06:09;;;;;;;0.10;0.10;;;;;;;-1.33;100.00;101918.52;1776447;78;21147;-47
2020/12/03 00:08:37;;;;;;;4.47;0.82;;;;;;;-1.34;100.00;101922.69;1790557;80;21150;-49
2020/12/03 00:11:05;;;;;;;0.90;0.90;;;;;;;-1.34;100.00;101928.05;1742471;78;20960;-49
2020/12/03 00:13:35;;;;;;;0.35;0.35;;;;;;;-1.32;100.00;101926.89;1774500;78;21107;-48
2020/12/03 00:16:03;;;;;;;1.92;0.90;;;;;;;-1.30;100.00;101930.25;1761972;78;21187;-46
2020/12/03 00:18:33;;;;;;;1.10;1.00;;;;;;;-1.26;100.00;101929.91;1767721;80;21427;-50
2020/12/03 00:21:01;;;;;;;0.20;0.20;;;;;;;-1.25;100.00;101926.24;1764017;80;21485;-46
2020/12/03 00:23:29;;;;;;;0.10;0.10;;;;;;;-1.23;100.00;101921.55;1787356;80;21098;-47
2020/12/03 00:25:57;;;;;;;1.00;0.50;;;;;;;-1.22;100.00;101921.37;1807358;78;21157;-47
2020/12/03 00:28:32;;;;;;;0.10;0.10;;;;;;;-1.22;100.00;101919.20;1791190;78;21561;-48
2020/12/03 00:31:00;;;;;;;0.13;0.13;;;;;;;-1.21;100.00;101924.89;1785167;78;21145;-46
2020/12/03 00:33:28;;;;;;;0.28;0.28;;;;;;;-1.19;100.00;101929.08;1789355;78;21158;-49
2020/12/03 00:35:55;;;;;;;0.20;0.20;;;;;;;-1.20;100.00;101926.58;1789110;78;21102;-47
2020/12/03 00:38:24;;;;;;;0.20;0.20;;;;;;;-1.22;100.00;101932.61;1796002;79;21119;-48
2020/12/03 00:40:52;;;;;;;0.10;0.10;;;;;;;-1.24;100.00;101930.59;1794907;79;21174;-49
2020/12/03 00:43:19;;;;;;;0.62;0.62;;;;;;;-1.23;100.00;101934.45;1786660;79;21150;-46
2020/12/03 00:45:47;;;;;;;1.85;1.50;;;;;;;-1.23;100.00;101930.44;1793027;78;22130;-48
2020/12/03 00:48:16;;;;;;;1.95;0.40;;;;;;;-1.23;100.00;101928.27;1786706;77;21384;-47
2020/12/03 00:50:44;;;;;;;0.10;0.10;;;;;;;-1.25;100.00;101927.58;1793906;78;21118;-49
2020/12/03 00:53:12;;;;;;;1.25;0.60;;;;;;;-1.23;100.00;101922.39;1788299;78;21161;-49
2020/12/03 00:55:40;;;;;;;1.07;0.98;;;;;;;-1.22;100.00;101918.69;1767499;78;21162;-49
2020/12/03 00:58:08;;;;;;;1.30;1.22;;;;;;;-1.26;100.00;101914.68;1799809;78;21184;-46
2020/12/03 01:00:36;;;;;;;0.47;0.47;;;;;;;-1.28;100.00;101917.19;1787716;78;21143;-49
2020/12/03 01:03:04;;;;;;;0.00;0.00;;;;;;;-1.30;100.00;101912.81;1761417;81;21145;-47
2020/12/03 01:05:31;;;;;;;1.45;1.35;;;;;;;-1.31;100.00;101905.78;1785217;79;21585;-48
2020/12/03 01:07:59;;;;;;;0.50;0.50;;;;;;;-1.31;100.00;101900.42;1782047;79;21740;-47
2020/12/03 01:10:31;;;;;;;3.85;1.65;;;;;;;-1.32;100.00;101897.89;1764724;81;21111;-49
2020/12/03 01:12:59;;;;;;;1.45;1.35;;;;;;;-1.32;100.00;101904.09;1765148;81;21596;-49
2020/12/03 01:15:27;;;;;;;0.93;0.85;;;;;;;-1.32;100.00;101901.41;1767316;80;21075;-49
2020/12/03 01:17:55;;;;;;;0.90;0.90;;;;;;;-1.34;100.00;101903.41;1775037;78;21698;-48
2020/12/03 01:20:25;;;;;;;0.20;0.20;;;;;;;-1.35;100.00;101899.06;1784830;80;21126;-49
2020/12/03 01:22:53;;;;;;;1.07;0.57;;;;;;;-1.33;100.00;101901.08;1817587;78;21165;-46
2020/12/03 01:25:22;;;;;;;0.30;0.30;;;;;;;-1.33;100.00;101898.91;1813479;77;21772;-49
2020/12/03 01:27:50;;;;;;;0.10;0.10;;;;;;;-1.33;100.00;101895.72;1789126;78;21115;-47
2020/12/03 01:30:18;;;;;;;0.40;0.40;;;;;;;-1.32;100.00;101894.70;1786119;80;21127;-48
2020/12/03 01:32:46;;;;;;;1.25;1.15;;;;;;;-1.31;100.00;101895.06;1790198;78;21133;-49
2020/12/03 01:35:14;;;;;;;0.28;0.28;;;;;;;-1.29;100.00;101897.55;1759421;78;21170;-47
2020/12/03 01:37:44;;;;;;;0.95;0.30;;;;;;;-1.29;100.00;101894.87;1786402;78;21438;-48
2020/12/03 01:40:13;;;;;;;4.85;1.70;;;;;;;-1.27;100.00;101890.70;1789287;78;21134;-49
2020/12/03 01:42:41;;;;;;;0.50;0.50;;;;;;;-1.26;100.00;101888.34;1753796;80;21137;-49
2020/12/03 01:45:51;;;;;;;0.57;0.57;;;;;;;-1.27;100.00;101888.02;1816808;77;21126;-47
2020/12/03 01:48:41;;;;;;;0.50;0.50;;;;;;;-1.28;100.00;101883.67;1758400;80;21146;-47
2020/12/03 01:51:23;;;;;;;0.13;0.13;;;;;;;-1.23;100.00;101877.30;1799073;78;21281;-49
2020/12/03 01:53:58;;;;;;;0.53;0.53;;;;;;;-1.17;100.00;101863.20;1848107;76;29649;-47
2020/12/03 01:57:06;;;;;;;0.50;0.28;;;;;;;-1.19;100.00;101866.55;1773928;78;21103;-49
2020/12/03 01:59:37;;;;;;;0.30;0.30;;;;;;;-1.15;100.00;101863.87;1768035;80;21111;-48
2020/12/03 02:02:05;;;;;;;0.23;0.23;;;;;;;-1.11;100.00;101866.58;1769765;80;21533;-47
2020/12/03 02:04:32;;;;;;;0.50;0.40;;;;;;;-1.11;100.00;101859.36;1767005;80;21127;-48
2020/12/03 02:07:04;;;;;;;1.37;1.35;;;;;;;-1.11;100.00;101861.20;1773575;80;21126;-47
2020/12/03 02:09:33;;;;;;;0.20;0.20;;;;;;;-1.12;100.00;101871.59;1745759;81;21566;-48
2020/12/03 02:12:02;;;;;;;0.40;0.40;;;;;;;-1.12;100.00;101870.24;1721983;82;21180;-51
2020/12/03 02:14:30;;;;;;;1.12;1.10;;;;;;;-1.12;100.00;101868.91;1723294;82;21216;-49
2020/12/03 02:16:58;;;;;;;0.40;0.40;;;;;;;-1.13;100.00;101870.75;1745545;82;21572;-47
2020/12/03 02:19:30;;;;;;;0.93;0.57;;;;;;;-1.12;100.00;101867.05;1700477;82;21133;-50
2020/12/03 02:22:05;;;;;;;0.10;0.10;;;;;;;-1.09;100.00;101865.88;1734750;81;21255;-49
2020/12/03 02:24:40;;;;;;;0.53;0.23;;;;;;;-1.08;100.00;101860.87;1736866;81;21605;-50
2020/12/03 02:27:09;;;;;;;0.30;0.30;;;;;;;-1.08;100.00;101867.57;1738587;82;21052;-50
2020/12/03 02:29:36;;;;;;;0.35;0.35;;;;;;;-1.10;100.00;101867.73;1736651;81;21338;-50
2020/12/03 02:32:05;;;;;;;0.53;0.50;;;;;;;-1.06;100.00;101872.75;1735720;81;21157;-51
2020/12/03 02:34:33;;;;;;;0.13;0.13;;;;;;;-1.04;100.00;101870.74;1736984;82;22579;-49
2020/12/03 02:37:01;;;;;;;0.80;0.80;;;;;;;-1.04;100.00;101864.87;1734848;81;21399;-50
2020/12/03 02:39:30;;;;;;;0.45;0.45;;;;;;;-1.03;100.00;101874.61;1733911;81;21164;-51
2020/12/03 02:41:59;;;;;;;1.22;0.85;;;;;;;-1.03;100.00;101869.25;1738214;82;21138;-51
2020/12/03 02:44:26;;;;;;;0.80;0.80;;;;;;;-1.01;100.00;101871.27;1738179;82;21127;-49
2020/12/03 02:46:54;;;;;;;0.75;0.75;;;;;;;-1.01;100.00;101872.61;1734688;81;21921;-51
2020/12/03 02:49:21;;;;;;;1.70;1.05;;;;;;;-1.02;100.00;101874.94;1736763;81;21177;-49
2020/12/03 02:51:51;;;;;;;0.10;0.10;;;;;;;-1.06;100.00;101873.61;1736346;81;21207;-49
2020/12/03 02:54:18;;;;;;;0.40;0.40;;;;;;;-1.07;100.00;101869.23;1695702;83;21157;-49
2020/12/03 02:56:46;;;;;;;0.10;0.10;;;;;;;-1.06;100.00;101862.02;1707020;83;21165;-48
2020/12/03 02:59:13;;;;;;;0.25;0.08;;;;;;;-1.07;100.00;101862.53;1753449;81;21144;-48
2020/12/03 03:01:41;;;;;;;0.33;0.33;;;;;;;-1.08;100.00;101864.89;1736931;81;21146;-46
2020/12/03 03:04:08;;;;;;;0.33;0.33;;;;;;;-1.06;100.00;101865.56;1701680;83;21585;-46
2020/12/03 03:06:36;;;;;;;0.40;0.40;;;;;;;-1.03;100.00;101875.95;1717897;83;21117;-48
2020/12/03 03:09:04;;;;;;;0.28;0.28;;;;;;;-1.03;100.00;101873.27;1719286;83;21153;-46
2020/12/03 03:11:32;;;;;;;0.03;0.03;;;;;;;-1.01;100.00;101869.92;1716807;83;21220;-46
2020/12/03 03:14:00;;;;;;;2.05;0.90;;;;;;;-1.01;100.00;101868.58;1715694;82;21641;-46
2020/12/03 03:16:28;;;;;;;0.20;0.20;;;;;;;-1.00;100.00;101867.56;1721165;83;21635;-48
2020/12/03 03:18:56;;;;;;;2.00;1.82;;;;;;;-0.98;100.00;101870.92;1780351;80;21087;-50
2020/12/03 03:21:23;;;;;;;0.90;0.90;;;;;;;-0.98;100.00;101878.97;1764430;80;21114;-49
2020/12/03 03:23:51;;;;;;;0.57;0.57;;;;;;;-0.98;100.00;101874.11;1758803;80;21146;-49
2020/12/03 03:26:19;;;;;;;0.10;0.10;;;;;;;-1.01;100.00;101877.97;1762971;81;21158;-50
2020/12/03 03:28:48;;;;;;;0.25;0.25;;;;;;;-1.01;100.00;101873.95;1727045;83;21175;-50
2020/12/03 03:31:17;;;;;;;0.28;0.28;;;;;;;-1.02;100.00;101877.62;1717343;82;21168;-49
2020/12/03 03:33:44;;;;;;;0.10;0.10;;;;;;;-1.03;100.00;101874.61;1718994;83;21118;-48
2020/12/03 03:36:12;;;;;;;3.75;0.55;;;;;;;-1.04;100.00;101872.91;1715799;83;21452;-49
2020/12/03 03:38:39;;;;;;;0.15;0.15;;;;;;;-1.03;100.00;101872.44;1717987;83;21160;-50
2020/12/03 03:41:07;;;;;;;1.17;0.50;;;;;;;-1.03;100.00;101873.78;1723832;82;21198;-50
2020/12/03 03:43:35;;;;;;;0.25;0.25;;;;;;;-1.03;100.00;101871.93;1726877;83;21137;-50
2020/12/03 03:46:02;;;;;;;0.25;0.25;;;;;;;-1.06;100.00;101873.61;1719749;83;21150;-50
2020/12/03 03:48:30;;;;;;;0.17;0.17;;;;;;;-1.04;100.00;101872.09;1718246;82;21144;-48
2020/12/03 03:50:58;;;;;;;1.02;0.95;;;;;;;-1.01;100.00;101871.27;1722923;82;21017;-50
2020/12/03 03:53:25;;;;;;;0.68;0.53;;;;;;;-1.02;100.00;101862.86;1723196;82;21157;-50
2020/12/03 03:55:52;;;;;;;1.07;1.07;;;;;;;-1.03;100.00;101860.37;1730122;82;21133;-49
2020/12/03 03:58:20;;;;;;;0.45;0.45;;;;;;;-1.02;100.00;101859.34;1732490;82;21160;-48
2020/12/03 04:00:48;;;;;;;0.53;0.47;;;;;;;-0.99;100.00;101856.31;1732112;82;21136;-49
2020/12/03 04:03:18;;;;;;;1.42;1.32;;;;;;;-0.98;100.00;101866.89;1729606;82;21144;-50
2020/12/03 04:05:50;;;;;;;0.68;0.68;;;;;;;-0.97;100.00;101865.88;1729434;82;21649;-51
2020/12/03 04:08:17;;;;;;;0.53;0.53;;;;;;;-0.97;100.00;101871.23;1729668;82;21436;-50
2020/12/03 04:10:45;;;;;;;2.22;1.17;;;;;;;-0.96;100.00;101871.59;1729156;82;21102;-48
2020/12/03 04:13:13;;;;;;;0.00;0.00;;;;;;;-0.94;100.00;101872.75;1720658;83;21144;-48
2020/12/03 04:15:40;;;;;;;0.75;0.75;;;;;;;-0.93;100.00;101871.25;1706652;81;21105;-48
2020/12/03 04:18:07;;;;;;;0.13;0.13;;;;;;;-0.93;100.00;101864.54;1721680;82;21158;-49
2020/12/03 04:20:35;;;;;;;0.15;0.15;;;;;;;-0.92;100.00;101870.23;1733941;82;21130;-50
2020/12/03 04:23:03;;;;;;;1.87;1.75;;;;;;;-0.91;100.00;101865.22;1729478;82;21739;-51
2020/12/03 04:25:30;;;;;;;0.30;0.23;;;;;;;-0.90;100.00;101864.19;1735316;81;21107;-49
2020/12/03 04:27:58;;;;;;;1.40;0.53;;;;;;;-0.90;100.00;101861.52;1737846;82;21153;-50
2020/12/03 04:30:25;;;;;;;3.75;0.40;;;;;;;-0.90;100.00;101868.22;1735739;81;21541;-50
2020/12/03 04:32:53;;;;;;;1.55;0.78;;;;;;;-0.90;100.00;101861.52;1735558;81;21139;-50
2020/12/03 04:35:20;;;;;;;1.27;1.17;;;;;;;-0.90;100.00;101861.52;1736781;81;21171;-50
2020/12/03 04:37:49;;;;;;;0.95;0.55;;;;;;;-0.89;100.00;101868.58;1735603;81;21196;-50
2020/12/03 04:40:28;;;;;;;0.90;0.90;;;;;;;-0.90;100.00;101862.85;1735190;81;21200;-52
2020/12/03 04:42:57;;;;;;;0.25;0.25;;;;;;;-0.91;100.00;101862.53;1736789;82;21576;-48
2020/12/03 04:45:39;;;;;;;0.55;0.55;;;;;;;-0.91;100.00;101861.19;1734287;81;21120;-49
2020/12/03 04:48:34;;;;;;;0.62;0.62;;;;;;;-0.91;100.00;101865.22;1729154;81;21438;-51
2020/12/03 04:51:28;;;;;;;1.12;1.10;;;;;;;-0.91;100.00;101863.87;1737610;82;21128;-51
2020/12/03 04:54:32;;;;;;;2.40;0.53;;;;;;;-0.92;100.00;101858.66;1736718;82;21137;-51
2020/12/03 04:57:22;;;;;;;1.47;0.82;;;;;;;-0.93;100.00;101862.37;1736428;81;21144;-50
2020/12/03 05:00:00;;;;;;;2.30;0.55;;;;;;;-0.94;100.00;101849.45;1737462;82;21159;-49
2020/12/03 05:02:46;;;;;;;1.05;0.95;;;;;;;-0.93;100.00;101852.97;1733626;81;21191;-49
2020/12/03 05:05:27;;;;;;;0.68;0.68;;;;;;;-0.94;100.00;101849.45;1733135;81;21176;-49
2020/12/03 05:08:03;;;;;;;0.93;0.93;;;;;;;-0.95;100.00;101848.27;1736869;82;21178;-50
2020/12/03 05:10:45;;;;;;;0.85;0.53;;;;;;;-0.97;100.00;101847.09;1722225;82;21174;-49
2020/12/03 05:13:23;;;;;;;0.05;0.05;;;;;;;-0.95;100.00;101854.47;1782030;80;21504;-49
2020/12/03 05:15:52;;;;;;;0.60;0.60;;;;;;;-0.94;100.00;101853.48;1731149;80;21480;-50
2020/12/03 05:18:28;;;;;;;0.47;0.47;;;;;;;-0.94;100.00;101857.51;1720136;81;21192;-50
2020/12/03 05:20:57;;;;;;;0.20;0.20;;;;;;;-0.96;100.00;101862.71;1748983;80;21105;-50
2020/12/03 05:23:31;;;;;;;0.35;0.35;;;;;;;-0.96;100.00;101864.89;1744915;82;21576;-50
2020/12/03 05:26:00;;;;;;;3.87;2.27;;;;;;;-0.94;100.00;101866.91;1718868;80;21138;-49
2020/12/03 05:28:42;;;;;;;0.82;0.82;;;;;;;-0.95;100.00;101874.59;1722568;83;21125;-48
2020/12/03 05:31:17;;;;;;;1.35;0.40;;;;;;;-0.94;100.00;101869.59;1689165;82;21144;-49
2020/12/03 05:33:45;;;;;;;1.30;1.20;;;;;;;-0.93;100.00;101879.81;1737534;82;21142;-49
2020/12/03 05:36:30;;;;;;;0.68;0.68;;;;;;;-0.92;100.00;101877.45;1708209;82;21122;-50
2020/12/03 05:39:00;;;;;;;0.85;0.75;;;;;;;-0.91;100.00;101881.31;1708035;84;21122;-48
2020/12/03 05:41:34;;;;;;;0.33;0.33;;;;;;;-0.90;100.00;101877.61;1744512;81;21161;-48
2020/12/03 05:44:20;;;;;;;0.88;0.82;;;;;;;-0.91;100.00;101876.46;1737559;82;22502;-49
2020/12/03 05:46:49;;;;;;;0.57;0.57;;;;;;;-0.90;100.00;101876.78;1691045;82;21616;-50
2020/12/03 05:49:20;;;;;;;1.45;0.95;;;;;;;-0.88;100.00;101884.16;1723773;83;21141;-50
2020/12/03 05:51:54;;;;;;;0.80;0.75;;;;;;;-0.89;100.00;101890.05;1745558;80;21174;-50
2020/12/03 05:54:22;;;;;;;0.10;0.10;;;;;;;-0.88;100.00;101889.02;1735317;81;21131;-51
2020/12/03 05:56:50;;;;;;;7.28;1.10;;;;;;;-0.88;100.00;101891.70;1751761;81;21139;-48
2020/12/03 05:59:18;;;;;;;0.80;0.70;;;;;;;-0.87;100.00;101894.74;1751784;81;21138;-50
2020/12/03 06:02:02;;;;;;;3.20;1.32;;;;;;;-0.88;100.00;101895.73;1751856;81;21122;-50
2020/12/03 06:04:35;;;;;;;0.10;0.10;;;;;;;-0.88;100.00;101895.73;1746250;80;21110;-50
2020/12/03 06:07:32;;;;;;;1.07;0.47;;;;;;;-0.87;100.00;101889.38;1757878;81;21144;-50
2020/12/03 06:10:23;;;;;;;0.35;0.35;;;;;;;-0.85;100.00;101889.19;1785152;78;21149;-50
2020/12/03 06:13:16;;;;;;;0.28;0.23;;;;;;;-0.82;100.00;101887.50;1784819;80;21143;-48
2020/12/03 06:15:54;;;;;;;2.90;0.82;;;;;;;-0.82;100.00;101890.70;1782948;78;21557;-48
2020/12/03 06:18:43;;;;;;;0.42;0.42;;;;;;;-0.81;100.00;101890.54;1836377;76;29072;-51
2020/12/03 06:21:59;;;;;;;0.40;0.40;;;;;;;-0.84;100.00;101899.41;1802701;77;21695;-48
2020/12/03 06:25:03;;;;;;;0.80;0.80;;;;;;;-0.83;100.00;101901.11;1803380;78;21118;-48
2020/12/03 06:28:01;;;;;;;0.42;0.42;;;;;;;-0.83;100.00;101901.11;1786569;78;21157;-49
2020/12/03 06:30:46;;;;;;;1.35;0.93;;;;;;;-0.84;100.00;101902.96;1817809;78;21134;-51
2020/12/03 06:33:39;;;;;;;1.57;0.55;;;;;;;-0.82;100.00;101906.80;1817834;78;21161;-50
2020/12/03 06:36:26;;;;;;;3.55;0.88;;;;;;;-0.81;100.00;101905.81;1817653;78;21087;-51
2020/12/03 06:39:22;;;;;;;1.55;1.45;;;;;;;-0.81;100.00;101906.64;1801004;78;21141;-51
2020/12/03 06:42:16;;;;;;;1.00;0.93;;;;;;;-0.80;100.00;101911.50;1785480;80;21130;-51
2020/12/03 06:45:21;;;;;;;1.10;0.75;;;;;;;-0.81;100.00;101908.49;1771557;80;21493;-48
2020/12/03 06:48:15;;;;;;;0.53;0.53;;;;;;;-0.79;100.00;101910.48;1785859;78;21094;-51
2020/12/03 06:51:12;;;;;;;1.25;1.00;;;;;;;-0.74;100.00;101907.65;1826127;76;29049;-47
2020/12/03 06:54:19;;;;;;;0.85;0.85;;;;;;;-0.79;100.00;101908.66;1733146;82;21156;-48
2020/12/03 06:57:14;;;;;;;0.37;0.37;;;;;;;-0.77;100.00;101911.16;1733238;82;21138;-47
2020/12/03 07:00:28;;;;;;;1.67;1.60;;;;;;;-0.75;100.00;101903.27;1733004;81;21174;-48
2020/12/03 07:03:12;;;;;;;2.00;1.00;;;;;;;-0.75;100.00;101917.20;1733143;82;21201;-49
2020/12/03 07:06:30;;;;;;;0.23;0.23;;;;;;;-0.77;100.00;101907.13;1726574;81;21007;-49
2020/12/03 07:09:36;;;;;;;1.60;1.10;;;;;;;-0.74;100.00;101913.49;1733300;82;21126;-50
2020/12/03 07:12:35;;;;;;;0.03;0.03;;;;;;;-0.75;100.00;101914.52;1733316;82;21166;-50
2020/12/03 07:15:54;;;;;;;0.25;0.25;;;;;;;-0.75;100.00;101909.15;1732351;81;21174;-51
2020/12/03 07:18:55;;;;;;;0.35;0.35;;;;;;;-0.74;100.00;101914.84;1733399;82;21189;-49
2020/12/03 07:21:51;;;;;;;0.10;0.10;;;;;;;-0.72;100.00;101915.52;1703949;82;21568;-48
2020/12/03 07:24:23;;;;;;;1.35;0.85;;;;;;;-0.70;100.00;101912.16;1703903;82;21117;-48
2020/12/03 07:27:08;;;;;;;0.40;0.40;;;;;;;-0.67;100.00;101913.16;1704102;84;21196;-50
2020/12/03 07:30:08;;;;;;;2.10;1.22;;;;;;;-0.64;100.00;101916.87;1715796;81;21149;-50
2020/12/03 07:32:54;;;;;;;0.40;0.40;;;;;;;-0.61;100.00;101916.52;1681544;85;21200;-49
2020/12/03 07:35:48;;;;;;;3.02;1.27;;;;;;;-0.58;100.00;101920.71;1681445;83;21149;-49
2020/12/03 07:38:34;;;;;;;0.30;0.30;;;;;;;-0.58;100.00;101924.23;1716483;82;21126;-50
2020/12/03 07:41:02;;;;;;;0.57;0.57;;;;;;;-0.57;100.00;101925.06;1733235;81;21158;-49
2020/12/03 07:43:37;;;;;;;3.87;2.05;;;;;;;-0.56;100.00;101928.93;1702272;82;21611;-49
2020/12/03 07:46:32;;;;;;;0.20;0.20;;;;;;;-0.57;100.00;101931.30;1733003;81;21149;-50
2020/12/03 07:49:00;;;;;;;1.50;1.40;;;;;;;-0.56;100.00;101931.61;1732592;81;21206;-50
2020/12/03 07:51:28;;;;;;;0.20;0.20;;;;;;;-0.55;100.00;101936.48;1727712;81;21149;-50
2020/12/03 07:54:18;;;;;;;0.40;0.40;;;;;;;-0.54;100.00;101938.17;1727847;83;21150;-50
2020/12/03 07:56:49;;;;;;;1.30;1.27;;;;;;;-0.51;100.00;101936.48;1727519;83;21137;-49
2020/12/03 07:59:33;;;;;;;0.10;0.10;;;;;;;-0.47;100.00;101931.95;1844881;75;29140;-49
2020/12/03 08:02:01;;;;;;;0.70;0.70;;;;;;;-0.51;100.00;101934.63;1785891;80;21378;-48
2020/12/03 08:04:37;;;;;;;1.87;0.35;;;;;;;-0.50;100.00;101934.95;1785664;78;21224;-48
2020/12/03 08:07:10;;;;;;;1.22;1.22;;;;;;;-0.46;100.00;101936.81;1785750;80;21125;-49
2020/12/03 08:09:44;;;;;;;6.85;2.42;;;;;;;-0.46;100.00;101933.61;1786012;78;21615;-48
2020/12/03 08:12:21;;;;;;;;;;;;;;;-0.44;100.00;101924.89;1788820;80;21086;-49
2020/12/03 08:14:59;;;;;;;0.40;0.40;;;;;;;-0.40;100.00;101929.91;1786251;78;20288;-52
2020/12/03 08:17:32;;;;;;;1.05;1.05;;;;;;;-0.38;100.00;101923.87;1786334;80;21130;-51
2020/12/03 08:20:08;;;;;;;0.10;0.10;;;;;;;-0.36;100.00;101919.16;1785895;78;21620;-51
2020/12/03 08:22:49;;;;;;;1.17;1.10;;;;;;;-0.34;100.00;101914.47;1786300;80;21121;-49
2020/12/03 08:25:26;;;;;;;18.67;2.10;;;;;;;-0.31;100.00;101908.74;1786181;78;21556;-50
2020/12/03 08:28:03;;;;;;;4.60;1.42;;;;;;;-0.31;100.00;101907.41;1755979;80;21110;-49
2020/12/03 08:30:37;;;;;;;0.80;0.80;;;;;;;-0.29;100.00;101902.70;1786188;78;21687;-48
2020/12/03 08:33:11;;;;;;;2.10;1.00;;;;;;;-0.30;100.00;101909.06;1786127;80;21193;-50
2020/12/03 08:35:40;;;;;;;1.00;0.47;;;;;;;-0.31;100.00;101912.26;1786156;78;21126;-49
2020/12/03 08:38:08;;;;;;;1.40;1.17;;;;;;;-0.32;100.00;101915.97;1785733;80;21094;-49
2020/12/03 08:40:38;;;;;;;22.85;1.65;;;;;;;-0.33;100.00;101911.59;1785767;78;21140;-48
2020/12/03 08:46:02;;;;;;;1.22;1.22;;;;;;;-0.23;100.00;101904.68;1843815;77;29072;-50
2020/12/03 08:48:27;;;;;;;0.82;0.82;;;;;;;-0.26;100.00;101903.69;1790997;80;21114;-51
2020/12/03 08:50:58;;;;;;;2.25;1.52;;;;;;;-0.22;100.00;101903.69;1791424;78;21162;-51
2020/12/03 08:53:27;;;;;;;1.50;1.40;;;;;;;-0.18;100.00;101893.42;1791423;79;21581;-50
2020/12/03 08:56:19;;;;;;;1.98;0.75;;;;;;;-0.13;100.00;101898.59;1791488;78;21169;-52
2020/12/03 08:59:07;;;;;;;1.12;1.12;;;;;;;-0.11;100.00;101891.20;1791766;79;21130;-50
2020/12/03 09:01:44;;;;;;;1.45;1.27;;;;;;;-0.09;100.00;101885.67;1791401;78;21343;-50
2020/12/03 09:04:11;;;;;;;0.75;0.75;;;;;;;-0.07;100.00;101888.52;1791954;79;21122;-50
2020/12/03 09:06:47;;;;;;;1.62;1.30;;;;;;;-0.01;100.00;101881.08;1791713;78;21098;-49
2020/12/03 09:09:12;;;;;;;2.70;1.40;;;;;;;0.05;100.00;101889.45;1791440;80;21114;-50
2020/12/03 09:11:39;;;;;;;3.47;2.40;;;;;;;0.08;100.00;101885.10;1791321;78;21141;-50
2020/12/03 09:14:07;;;;;;;2.22;2.05;;;;;;;0.10;100.00;101876.33;1791784;80;21099;-50
2020/12/03 09:16:35;;;;;;;0.72;0.72;;;;;;;0.11;100.00;101881.55;1791803;78;21651;-50
2020/12/03 09:19:02;;;;;;;1.77;1.60;;;;;;;0.16;100.00;101876.98;1791661;80;21114;-49
2020/12/03 09:21:30;;;;;;;3.10;1.57;;;;;;;0.19;100.00;101872.09;1791661;78;21161;-51
2020/12/03 09:23:58;;;;;;;12.85;1.57;;;;;;;0.22;100.00;101870.89;1791684;79;21138;-50
2020/12/03 09:26:32;;;;;;;2.37;2.27;;;;;;;0.23;100.00;101868.55;1791755;78;21071;-51
2020/12/03 09:29:03;;;;;;;1.00;1.00;;;;;;;0.26;100.00;101864.16;1791366;79;21165;-51
2020/12/03 09:31:32;;;;;;;2.67;0.80;;;;;;;0.26;100.00;101861.47;1791678;78;21150;-50
2020/12/03 09:33:59;;;;;;;1.20;1.05;;;;;;;0.30;100.00;101860.12;1791579;79;21432;-50
2020/12/03 09:36:27;;;;;;;0.50;0.50;;;;;;;0.32;100.00;101853.20;1791488;78;21115;-51
2020/12/03 09:38:57;;;;;;;2.33;2.12;;;;;;;0.33;100.00;101855.72;1791485;80;21174;-50
2020/12/03 09:41:25;;;;;;;1.20;1.07;;;;;;;0.31;100.00;101855.05;1791512;78;21178;-49
2020/12/03 09:43:53;;;;;;;0.95;0.95;;;;;;;0.25;99.99;101849.54;1790819;80;21121;-50
2020/12/03 09:46:26;;;;;;;1.17;0.88;;;;;;;0.20;100.00;101836.66;1785676;78;21561;-51
2020/12/03 09:48:53;;;;;;;2.15;1.77;;;;;;;0.20;100.00;101829.94;1756757;80;21095;-51
2020/12/03 09:51:22;;;;;;;1.20;1.20;;;;;;;0.20;100.00;101828.59;1785883;78;21134;-50
2020/12/03 09:53:51;;;;;;;2.10;2.00;;;;;;;0.19;100.00;101826.89;1785804;80;21130;-51
2020/12/03 09:56:18;;;;;;;0.85;0.85;;;;;;;0.18;100.00;101829.27;1785434;78;21137;-50
2020/12/03 09:58:47;;;;;;;3.08;1.32;;;;;;;0.19;100.00;101826.89;1785468;80;21573;-50
2020/12/03 10:01:14;;;;;;;0.80;0.45;;;;;;;0.24;100.00;101828.55;1755368;80;21134;-50
2020/12/03 10:04:14;;;;;;;0.88;0.78;;;;;;;0.28;100.00;101833.91;1785455;80;21118;-51
2020/12/03 10:06:55;;;;;;;2.35;1.45;;;;;;;0.29;99.88;101827.50;1785729;78;21651;-51
2020/12/03 10:10:05;;;;;;;1.25;1.25;;;;;;;0.32;99.95;101828.52;1785419;78;21161;-49
2020/12/03 10:13:13;;;;;;;0.30;0.30;;;;;;;0.39;99.94;101836.17;1785524;80;21118;-51
2020/12/03 10:16:07;;;;;;;1.25;1.15;;;;;;;0.48;99.82;101836.97;1785116;78;21126;-51
2020/12/03 10:18:47;;;;;;;1.22;0.82;;;;;;;0.53;99.63;101833.74;1785496;80;21150;-49
2020/12/03 10:21:24;;;;;;;2.92;2.72;;;;;;;0.54;99.48;101828.68;1754067;80;21552;-49
2020/12/03 10:24:12;;;;;;;6.00;1.85;;;;;;;0.53;99.26;101831.05;1754229;81;21593;-50
2020/12/03 10:26:52;;;;;;;2.08;1.87;;;;;;;0.53;99.10;101828.36;1754610;80;21190;-51
2020/12/03 10:29:39;;;;;;;2.17;1.32;;;;;;;0.53;98.80;101830.54;1754505;80;21511;-51
2020/12/03 10:32:15;;;;;;;0.35;0.35;;;;;;;0.48;98.54;101834.79;1754381;81;21154;-50
2020/12/03 10:34:46;;;;;;;1.65;1.32;;;;;;;0.42;98.34;101830.45;1754117;80;21130;-50
2020/12/03 10:37:22;;;;;;;1.15;1.15;;;;;;;0.39;98.08;101829.45;1774844;80;21130;-51
2020/12/03 10:40:15;;;;;;;2.80;1.57;;;;;;;0.36;98.10;101829.81;1785544;78;21577;-51
2020/12/03 10:42:51;;;;;;;0.13;0.13;;;;;;;0.33;97.54;101830.69;1785284;80;21130;-49
2020/12/03 10:45:25;;;;;;;0.35;0.35;;;;;;;0.24;97.63;101830.40;1785224;78;21146;-50
2020/12/03 10:47:58;;;;;;;0.50;0.50;;;;;;;0.21;97.89;101819.50;1756663;80;21434;-51
2020/12/03 10:50:50;;;;;;;0.95;0.53;;;;;;;0.24;97.94;101816.44;1772998;79;21565;-50
2020/12/03 10:53:30;;;;;;;0.85;0.85;;;;;;;0.28;98.01;101816.94;1763000;80;21151;-49
2020/12/03 10:56:03;;;;;;;3.65;0.82;;;;;;;0.28;97.95;101804.33;1785448;78;21154;-50
2020/12/03 11:01:54;;;;;;;0.40;0.40;;;;;;;0.29;97.89;101802.47;1932429;74;29019;-48
2020/12/03 11:04:23;;;;;;;1.27;0.90;;;;;;;0.20;97.87;101814.63;1867148;75;21145;-50
2020/12/03 11:06:52;;;;;;;1.67;1.60;;;;;;;0.15;98.04;101812.16;1899006;75;21126;-50
2020/12/03 11:09:20;;;;;;;3.30;1.30;;;;;;;0.10;98.12;101809.13;1825973;78;21221;-50
2020/12/03 11:11:49;;;;;;;0.68;0.57;;;;;;;0.07;98.33;101813.52;1859772;77;21181;-49
2020/12/03 11:14:16;;;;;;;1.90;1.80;;;;;;;0.07;98.65;101818.39;1860314;77;21599;-49
2020/12/03 11:16:55;;;;;;;1.02;1.02;;;;;;;0.14;98.76;101818.53;1860122;77;21116;-49
2020/12/03 11:19:25;;;;;;;0.93;0.93;;;;;;;0.17;98.64;101814.13;1855760;77;21636;-48
2020/12/03 11:22:13;;;;;;;0.88;0.85;;;;;;;0.20;98.50;101827.24;1795159;79;21212;-50
2020/12/03 11:24:49;;;;;;;1.10;1.10;;;;;;;0.19;98.27;101826.89;1794977;79;21204;-49
2020/12/03 11:27:20;;;;;;;1.10;1.00;;;;;;;0.18;98.12;101826.58;1797330;78;21142;-50
2020/12/03 11:29:48;;;;;;;1.52;0.53;;;;;;;0.21;97.96;101831.08;1825721;78;21098;-48
2020/12/03 11:32:27;;;;;;;2.67;2.47;;;;;;;0.19;97.83;101829.58;1825779;78;21072;-50
2020/12/03 11:34:55;;;;;;;2.62;2.47;;;;;;;0.19;97.76;101826.89;1823328;78;21169;-49
2020/12/03 11:37:24;;;;;;;0.42;0.42;;;;;;;0.18;97.71;101830.61;1796821;79;21150;-51
2020/12/03 11:40:05;;;;;;;0.65;0.65;;;;;;;0.17;97.74;101824.88;1825476;78;21090;-50
2020/12/03 11:42:56;;;;;;;2.33;0.72;;;;;;;0.21;97.69;101814.12;1856508;76;21091;-51
2020/12/03 11:50:24;;;;;;;0.40;0.40;;;;;;;0.22;97.44;101813.09;1809604;78;21137;-52
2020/12/03 11:53:00;;;;;;;2.27;1.00;;;;;;;0.21;97.49;101804.70;1802596;79;21118;-52
2020/12/03 11:55:28;;;;;;;2.50;0.98;;;;;;;0.24;97.54;101800.31;1820941;78;21109;-52
2020/12/03 11:58:05;;;;;;;0.33;0.23;;;;;;;0.26;97.59;101802.32;1831354;78;21109;-53
2020/12/03 12:00:33;;;;;;;1.00;0.95;;;;;;;0.27;97.64;101795.91;1835537;78;21142;-51
2020/12/03 12:03:07;;;;;;;1.00;1.00;;;;;;;0.27;97.66;101806.67;1858742;77;21158;-53
2020/12/03 12:13:14;;;;;;;0.70;0.70;;;;;;;0.23;97.61;101803.20;1843869;77;21508;-52
2020/12/03 12:15:42;;;;;;;1.30;1.12;;;;;;;0.23;97.67;101801.85;1825815;77;21111;-52
2020/12/03 12:18:09;;;;;;;0.20;0.20;;;;;;;0.22;97.70;101795.62;1834096;77;21396;-52